.
WxDataArchive / Data Records for 2016-01-16
2016-01-15 January 2016 2016-01-17

Data Records for Saturday, 16 January 2016

Time	Temp	Chill	HIndex	Humid	Dewpt	 Wind 	HiWind	WindDir	Rain 	Barom
-----	----	-----	------	-----	-----	------	------	-------	-----	-----
00:00	32.8	32.8	32.8	93	31.0	2	5	270	0.00	29.511 
00:05	32.8	32.8	32.8	93	31.0	2	4	270	0.00	29.511 
00:10	32.8	32.8	32.8	93	31.0	1	3	270	0.00	29.511 
00:15	32.8	32.8	32.8	93	31.0	1	3	270	0.00	29.520 
00:20	32.8	32.8	32.8	93	31.0	2	4	270	0.00	29.520 
00:25	32.9	32.9	32.9	93	31.1	2	3	270	0.00	29.520 
00:30	32.9	32.9	32.9	93	31.1	2	4	270	0.00	29.525 
00:35	32.9	32.9	32.9	93	31.1	2	4	270	0.00	29.525 
00:40	32.9	32.9	32.9	93	31.1	1	5	292	0.00	29.525 
00:45	32.9	32.9	32.9	93	31.1	2	4	270	0.00	29.527 
00:50	32.9	32.9	32.9	93	31.1	2	5	270	0.00	29.527 
00:55	32.9	32.9	32.9	92	30.8	2	5	315	0.00	29.527 
01:00	32.9	32.9	32.9	92	30.8	2	5	270	0.00	29.532 
01:05	32.9	32.9	32.9	92	30.8	2	4	270	0.00	29.532 
01:10	32.9	32.9	32.9	92	30.8	2	5	270	0.00	29.532 
01:15	32.8	32.8	32.8	92	30.7	2	5	270	0.00	29.531 
01:20	32.8	32.8	32.8	92	30.7	2	7	270	0.00	29.531 
01:25	32.8	32.8	32.8	91	30.5	2	4	270	0.00	29.531 
01:30	32.8	32.8	32.8	91	30.5	2	5	270	0.00	29.533 
01:35	32.8	32.8	32.8	91	30.5	3	5	248	0.00	29.533 
01:40	32.9	32.9	32.9	90	30.3	2	6	292	0.00	29.533 
01:45	32.9	32.9	32.9	89	30.0	2	4	292	0.00	29.527 
01:50	32.9	32.9	32.9	89	30.0	2	7	315	0.00	29.527 
01:55	32.9	32.9	32.9	89	30.0	2	7	270	0.00	29.527 
02:00	32.9	32.9	32.9	88	29.7	1	5	338	0.00	29.540 
02:05	32.8	32.8	32.8	88	29.6	2	4	292	0.00	29.540 
02:10	32.8	32.8	32.8	88	29.6	2	5	292	0.00	29.540 
02:15	32.8	32.8	32.8	88	29.6	3	6	338	0.00	29.551 
02:20	32.7	32.7	32.7	88	29.5	2	6	292	0.00	29.551 
02:25	32.7	32.7	32.7	88	29.5	2	5	270	0.00	29.551 
02:30	32.5	32.5	32.5	88	29.3	3	6	292	0.00	29.550 
02:35	32.5	32.5	32.5	88	29.3	2	5	270	0.00	29.550 
02:40	32.5	32.5	32.5	88	29.3	2	4	270	0.00	29.550 
02:45	32.4	32.4	32.4	88	29.3	2	6	270	0.00	29.563 
02:50	32.2	32.2	32.2	88	29.1	3	7	292	0.00	29.563 
02:55	32.2	32.2	32.2	89	29.3	2	7	292	0.00	29.563 
03:00	32.1	32.1	32.1	89	29.2	2	5	315	0.00	29.569 
03:05	32.1	32.1	32.1	89	29.2	2	4	248	0.00	29.569 
03:10	32.1	32.1	32.1	89	29.2	2	6	270	0.00	29.569 
03:15	32.1	32.1	32.1	89	29.2	2	5	270	0.00	29.588 
03:20	32.1	32.1	32.1	89	29.2	3	7	270	0.00	29.588 
03:25	32.1	32.1	32.1	88	29.0	3	6	270	0.00	29.588 
03:30	32.1	32.1	32.1	88	29.0	2	5	270	0.00	29.579 
03:35	32.1	32.1	32.1	88	29.0	2	6	315	0.00	29.579 
03:40	32.1	32.1	32.1	88	29.0	3	7	270	0.00	29.579 
03:45	32.1	32.1	32.1	88	29.0	2	4	270	0.00	29.587 
03:50	32.1	32.1	32.1	88	29.0	1	5	315	0.00	29.587 
03:55	32.2	32.2	32.2	87	28.8	2	4	292	0.00	29.587 
04:00	32.2	32.2	32.2	87	28.8	1	3	292	0.00	29.590 
04:05	32.2	32.2	32.2	87	28.8	2	4	270	0.00	29.590 
04:10	32.1	32.1	32.1	87	28.7	2	5	270	0.00	29.590 
04:15	32.1	32.1	32.1	87	28.7	2	6	270	0.00	29.603 
04:20	32.1	32.1	32.1	87	28.7	2	4	270	0.00	29.603 
04:25	32.1	32.1	32.1	87	28.7	2	5	270	0.00	29.603 
04:30	32.1	32.1	32.1	87	28.7	3	5	270	0.00	29.612 
04:35	32.1	32.1	32.1	87	28.7	2	4	270	0.00	29.612 
04:40	32.1	32.1	32.1	87	28.7	2	4	270	0.00	29.612 
04:45	32.1	32.1	32.1	87	28.7	1	4	270	0.00	29.616 
04:50	32.1	32.1	32.1	87	28.7	3	5	292	0.00	29.616 
04:55	32.1	32.1	32.1	87	28.7	2	4	315	0.00	29.616 
05:00	32.1	32.1	32.1	86	28.4	2	5	292	0.00	29.620 
05:05	32.1	32.1	32.1	86	28.4	2	6	292	0.00	29.620 
05:10	32.1	32.1	32.1	86	28.4	2	5	292	0.00	29.620 
05:15	32.1	32.1	32.1	86	28.4	2	4	270	0.00	29.629 
05:20	32.1	32.1	32.1	86	28.4	2	6	270	0.00	29.629 
05:25	32.1	32.1	32.1	86	28.4	2	5	315	0.00	29.629 
05:30	32.1	32.1	32.1	86	28.4	2	5	270	0.00	29.638 
05:35	32.1	32.1	32.1	85	28.1	2	7	315	0.00	29.638 
05:40	32.1	32.1	32.1	85	28.1	2	4	292	0.00	29.638 
05:45	32.1	32.1	32.1	84	27.8	2	7	292	0.00	29.647 
05:50	32.1	32.1	32.1	84	27.8	1	3	270	0.00	29.647 
05:55	32.1	32.1	32.1	84	27.8	2	6	270	0.00	29.647 
06:00	32.1	32.1	32.1	83	27.5	1	5	292	0.00	29.654 
06:05	32.1	32.1	32.1	83	27.5	2	4	292	0.00	29.654 
06:10	32.1	32.1	32.1	83	27.5	2	4	270	0.00	29.654 
06:15	32.1	32.1	32.1	82	27.2	2	7	270	0.00	29.664 
06:20	32.1	32.1	32.1	82	27.2	1	4	292	0.00	29.664 
06:25	32.1	32.1	32.1	81	26.9	3	6	292	0.00	29.664 
06:30	32.1	32.1	32.1	81	26.9	1	3	270	0.00	29.671 
06:35	31.9	31.9	31.9	81	26.7	2	5	270	0.00	29.671 
06:40	31.9	31.9	31.9	81	26.7	2	10	315	0.00	29.671 
06:45	31.9	31.9	31.9	81	26.7	2	4	292	0.00	29.684 
06:50	31.9	31.9	31.9	81	26.7	1	5	292	0.00	29.684 
06:55	31.9	31.9	31.9	81	26.7	2	6	292	0.00	29.684 
07:00	31.8	31.8	31.8	81	26.6	3	7	292	0.00	29.692 
07:05	31.8	31.8	31.8	81	26.6	2	4	292	0.00	29.692 
07:10	31.6	31.6	31.6	82	26.7	2	5	270	0.00	29.692 
07:15	31.6	31.6	31.6	82	26.7	2	4	270	0.00	29.701 
07:20	31.5	31.5	31.5	83	26.9	2	4	270	0.00	29.701 
07:25	31.5	31.5	31.5	84	27.2	1	3	270	0.00	29.701 
07:30	31.3	31.3	31.3	84	27.0	1	3	270	0.00	29.711 
07:35	31.3	31.3	31.3	84	27.0	1	3	270	0.00	29.711 
07:40	31.3	31.3	31.3	84	27.0	1	3	270	0.00	29.711 
07:45	31.3	31.3	31.3	85	27.3	1	3	270	0.00	29.720 
07:50	31.3	31.3	31.3	85	27.3	0	3	270	0.00	29.720 
07:55	31.2	31.2	31.2	86	27.5	1	3	292	0.00	29.720 
08:00	31.2	31.2	31.2	86	27.5	1	3	292	0.00	29.724 
08:05	31.2	31.2	31.2	87	27.8	1	4	292	0.00	29.724 
08:10	31.0	31.0	31.0	87	27.6	1	3	292	0.00	29.724 
08:15	31.0	31.0	31.0	87	27.6	1	4	270	0.00	29.733 
08:20	30.9	30.9	30.9	87	27.5	1	3	270	0.00	29.733 
08:25	30.9	30.9	30.9	87	27.5	1	3	270	0.00	29.733 
08:30	30.9	30.9	30.9	86	27.2	1	3	292	0.00	29.733 
08:35	30.7	30.7	30.7	86	27.0	2	4	292	0.00	29.733 
08:40	30.7	30.7	30.7	86	27.0	2	4	270	0.00	29.733 
08:45	30.7	30.7	30.7	85	26.7	2	6	270	0.00	29.737 
08:50	30.7	30.7	30.7	84	26.4	1	4	292	0.00	29.737 
08:55	30.7	30.7	30.7	83	26.2	2	4	292	0.00	29.737 
09:00	30.9	30.9	30.9	82	26.1	3	7	292	0.00	29.748 
09:05	30.9	30.9	30.9	80	25.5	3	6	270	0.00	29.748 
09:10	30.9	30.9	30.9	79	25.2	3	5	315	0.00	29.748 
09:15	31.0	31.0	31.0	78	25.0	2	5	315	0.00	29.757 
09:20	31.0	31.0	31.0	78	25.0	2	6	292	0.00	29.757 
09:25	31.0	31.0	31.0	78	25.0	1	4	292	0.00	29.757 
09:30	31.0	31.0	31.0	78	25.0	0	2	292	0.00	29.769 
09:35	31.0	31.0	31.0	79	25.3	1	4	315	0.00	29.769 
09:40	31.0	31.0	31.0	78	25.0	2	6	315	0.00	29.769 
09:45	31.0	31.0	31.0	77	24.7	2	5	338	0.00	29.775 
09:50	31.0	31.0	31.0	76	24.3	2	5	270	0.00	29.775 
09:55	31.0	31.0	31.0	75	24.0	2	5	270	0.00	29.775 
10:00	31.0	31.0	31.0	75	24.0	2	5	270	0.00	29.782 
10:05	31.0	31.0	31.0	75	24.0	2	4	292	0.00	29.782 
10:10	31.0	31.0	31.0	75	24.0	2	4	270	0.00	29.782 
10:15	31.0	31.0	31.0	76	24.3	2	3	292	0.00	29.789 
10:20	31.0	31.0	31.0	76	24.3	2	4	315	0.00	29.789 
10:25	31.0	31.0	31.0	76	24.3	2	4	270	0.00	29.789 
10:30	31.0	31.0	31.0	76	24.3	1	4	270	0.00	29.798 
10:35	31.0	31.0	31.0	76	24.3	1	3	292	0.00	29.798 
10:40	31.0	31.0	31.0	76	24.3	1	4	292	0.00	29.798 
10:45	31.0	31.0	31.0	76	24.3	1	3	292	0.00	29.804 
10:50	31.0	31.0	31.0	75	24.0	1	4	292	0.00	29.804 
10:55	31.2	31.2	31.2	75	24.2	1	6	338	0.00	29.804 
11:00	31.2	31.2	31.2	74	23.9	2	5	248	0.00	29.813 
11:05	31.2	31.2	31.2	73	23.6	2	4	292	0.00	29.813 
11:10	31.0	31.0	31.0	72	23.1	2	5	338	0.00	29.813 
11:15	31.0	31.0	31.0	73	23.4	2	6	292	0.00	29.815 
11:20	30.9	30.9	30.9	73	23.3	3	7	292	0.00	29.815 
11:25	30.9	30.9	30.9	73	23.3	1	6	292	0.00	29.815 
11:30	30.9	30.9	30.9	73	23.3	2	7	315	0.00	29.818 
11:35	30.7	30.7	30.7	73	23.1	2	6	292	0.00	29.818 
11:40	30.6	30.6	30.6	73	23.0	2	5	270	0.00	29.818 
11:45	30.4	30.4	30.4	71	22.1	2	4	292	0.00	29.822 
11:50	30.6	30.6	30.6	71	22.3	2	4	248	0.00	29.822 
11:55	30.4	30.4	30.4	69	21.5	2	7	292	0.00	29.822 
12:00	30.4	30.4	30.4	69	21.5	2	4	292	0.00	29.822 
12:05	30.6	30.6	30.6	68	21.3	2	5	270	0.00	29.822 
12:10	30.4	30.4	30.4	67	20.8	3	10	292	0.00	29.822 
12:15	30.4	30.4	30.4	67	20.8	3	10	292	0.00	29.822 
12:20	30.4	30.4	30.4	68	21.1	2	4	292	0.00	29.822 
12:25	30.3	30.3	30.3	67	20.7	2	5	292	0.00	29.822 
12:30	30.3	30.3	30.3	67	20.7	1	3	315	0.00	29.820 
12:35	30.3	30.3	30.3	66	20.3	2	5	315	0.00	29.820 
12:40	30.3	30.3	30.3	66	20.3	2	5	315	0.00	29.820 
12:45	30.3	30.3	30.3	67	20.7	1	6	315	0.00	29.820 
12:50	30.3	30.3	30.3	68	21.0	1	4	248	0.00	29.820 
12:55	30.3	30.3	30.3	68	21.0	1	6	292	0.00	29.820 
13:00	30.3	30.3	30.3	67	20.7	2	4	315	0.00	29.820 
13:05	30.3	30.3	30.3	66	20.3	2	6	315	0.00	29.820 
13:10	30.1	30.1	30.1	63	19.0	3	6	292	0.00	29.820 
13:15	30.3	30.3	30.3	63	19.2	2	5	292	0.00	29.823 
13:20	30.4	30.4	30.4	63	19.3	1	3	292	0.00	29.823 
13:25	30.4	30.4	30.4	63	19.3	1	4	315	0.00	29.823 
13:30	30.6	30.6	30.6	64	19.9	1	2	315	0.00	29.823 
13:35	30.7	30.7	30.7	64	20.0	1	4	315	0.00	29.823 
13:40	30.7	30.7	30.7	63	19.6	1	3	315	0.00	29.823 
13:45	30.7	30.7	30.7	62	19.2	1	4	315	0.00	29.824 
13:50	30.7	30.7	30.7	62	19.2	2	5	315	0.00	29.824 
13:55	30.6	30.6	30.6	62	19.2	2	5	292	0.00	29.824 
14:00	30.6	30.6	30.6	63	19.5	1	5	338	0.00	29.824 
14:05	30.6	30.6	30.6	63	19.5	1	4	270	0.00	29.824 
14:10	30.6	30.6	30.6	63	19.5	1	4	292	0.00	29.824 
14:15	30.6	30.6	30.6	64	19.9	1	3	292	0.00	29.827 
14:20	30.7	30.7	30.7	64	20.0	1	3	292	0.00	29.827 
14:25	30.6	30.6	30.6	65	20.3	2	5	292	0.00	29.827 
14:30	30.6	30.6	30.6	65	20.3	2	6	270	0.00	29.831 
14:35	30.4	30.4	30.4	65	20.1	1	3	315	0.00	29.831 
14:40	30.6	30.6	30.6	65	20.3	1	3	315	0.00	29.831 
14:45	30.6	30.6	30.6	65	20.3	1	3	292	0.00	29.835 
14:50	30.6	30.6	30.6	66	20.6	1	3	292	0.00	29.835 
14:55	30.7	30.7	30.7	63	19.6	2	5	270	0.00	29.835 
15:00	30.7	30.7	30.7	63	19.6	1	4	270	0.00	29.836 
15:05	30.7	30.7	30.7	62	19.2	2	5	270	0.00	29.836 
15:10	30.7	30.7	30.7	63	19.6	1	3	292	0.00	29.836 
15:15	30.7	30.7	30.7	63	19.6	0	2	292	0.00	29.839 
15:20	30.9	30.9	30.9	64	20.2	0	2	292	0.00	29.839 
15:25	30.9	30.9	30.9	64	20.2	1	3	292	0.00	29.839 
15:30	30.7	30.7	30.7	64	20.0	1	3	292	0.00	29.845 
15:35	30.7	30.7	30.7	65	20.3	1	3	292	0.00	29.845 
15:40	30.7	30.7	30.7	65	20.3	1	2	292	0.00	29.845 
15:45	30.6	30.6	30.6	65	20.3	1	3	292	0.00	29.850 
15:50	30.6	30.6	30.6	66	20.6	0	2	292	0.00	29.850 
15:55	30.4	30.4	30.4	67	20.8	0	2	292	0.00	29.850 
16:00	30.4	30.4	30.4	67	20.8	1	2	292	0.00	29.852 
16:05	30.4	30.4	30.4	67	20.8	0	2	292	0.00	29.852 
16:10	30.4	30.4	30.4	68	21.1	0	2	292	0.00	29.852 
16:15	30.4	30.4	30.4	68	21.1	0	2	292	0.00	29.854 
16:20	30.4	30.4	30.4	68	21.1	0	4	292	0.00	29.854 
16:25	30.6	30.6	30.6	71	22.3	0	1	292	0.00	29.854 
16:30	30.4	30.4	30.4	73	22.8	0	1	292	0.00	29.864 
16:35	30.3	30.3	30.3	73	22.7	0	1	292	0.00	29.864 
16:40	30.1	30.1	30.1	74	22.8	0	1	292	0.00	29.864 
16:45	30.1	30.1	30.1	75	23.2	0	1	292	0.00	29.868 
16:50	30.1	30.1	30.1	75	23.2	0	2	292	0.00	29.868 
16:55	30.1	30.1	30.1	74	22.8	0	1	292	0.00	29.868 
17:00	30.1	30.1	30.1	73	22.5	0	2	292	0.00	29.874 
17:05	30.1	30.1	30.1	72	22.2	0	2	292	0.00	29.874 
17:10	30.1	30.1	30.1	70	21.5	0	2	292	0.00	29.874 
17:15	30.3	30.3	30.3	69	21.4	1	3	292	0.00	29.881 
17:20	30.3	30.3	30.3	69	21.4	0	2	292	0.00	29.881 
17:25	30.3	30.3	30.3	68	21.0	0	2	270	0.00	29.881 
17:30	30.3	30.3	30.3	67	20.7	0	2	270	0.00	29.884 
17:35	30.3	30.3	30.3	65	20.0	1	3	270	0.00	29.884 
17:40	30.3	30.3	30.3	65	20.0	0	2	270	0.00	29.884 
17:45	30.3	30.3	30.3	66	20.3	0	1	270	0.00	29.885 
17:50	30.3	30.3	30.3	65	20.0	0	2	270	0.00	29.885 
17:55	30.3	30.3	30.3	65	20.0	1	4	270	0.00	29.885 
18:00	30.3	30.3	30.3	65	20.0	1	3	248	0.00	29.884 
18:05	30.1	30.1	30.1	67	20.5	0	1	248	0.00	29.884 
18:10	30.1	30.1	30.1	67	20.5	0	1	248	0.00	29.884 
18:15	30.0	30.0	30.0	66	20.0	1	3	292	0.00	29.888 
18:20	30.0	30.0	30.0	66	20.0	0	2	292	0.00	29.888 
18:25	30.0	30.0	30.0	67	20.4	1	4	270	0.00	29.888 
18:30	30.0	30.0	30.0	67	20.4	0	2	270	0.00	29.892 
18:35	29.8	29.8	29.8	66	19.8	1	3	270	0.00	29.892 
18:40	29.8	29.8	29.8	66	19.8	1	3	248	0.00	29.892 
18:45	29.8	29.8	29.8	66	19.8	1	4	248	0.00	29.896 
18:50	29.7	29.7	29.7	66	19.8	0	2	248	0.00	29.896 
18:55	29.7	29.7	29.7	66	19.8	1	2	248	0.00	29.896 
19:00	29.7	29.7	29.7	67	20.1	0	1	248	0.00	29.897 
19:05	29.7	29.7	29.7	67	20.1	0	1	248	0.00	29.897 
19:10	29.7	29.7	29.7	67	20.1	0	2	248	0.00	29.897 
19:15	29.7	29.7	29.7	67	20.1	0	1	248	0.00	29.899 
19:20	29.5	29.5	29.5	66	19.6	0	2	248	0.00	29.899 
19:25	29.5	29.5	29.5	66	19.6	0	2	270	0.00	29.899 
19:30	29.5	29.5	29.5	67	19.9	0	1	270	0.00	29.898 
19:35	29.5	29.5	29.5	67	19.9	0	1	270	0.00	29.898 
19:40	29.5	29.5	29.5	67	19.9	0	1	270	0.00	29.898 
19:45	29.5	29.5	29.5	67	19.9	0	2	270	0.00	29.898 
19:50	29.5	29.5	29.5	67	19.9	0	1	270	0.00	29.898 
19:55	29.5	29.5	29.5	67	19.9	0	2	270	0.00	29.898 
20:00	29.7	29.7	29.7	67	20.1	0	2	270	0.00	29.901 
20:05	29.7	29.7	29.7	67	20.1	0	2	270	0.00	29.901 
20:10	29.7	29.7	29.7	67	20.1	0	1	270	0.00	29.901 
20:15	29.7	29.7	29.7	68	20.5	0	2	270	0.00	29.900 
20:20	29.7	29.7	29.7	68	20.5	0	2	270	0.00	29.900 
20:25	29.7	29.7	29.7	68	20.5	0	3	270	0.00	29.900 
20:30	29.7	29.7	29.7	69	20.8	1	4	270	0.00	29.901 
20:35	29.8	29.8	29.8	71	21.6	1	4	248	0.00	29.901 
20:40	29.7	29.7	29.7	72	21.8	1	3	248	0.00	29.901 
20:45	29.5	29.5	29.5	72	21.6	2	4	248	0.00	29.903 
20:50	29.4	29.4	29.4	72	21.5	2	5	270	0.00	29.903 
20:55	29.1	29.1	29.1	73	21.5	2	5	270	0.00	29.903 
21:00	29.0	29.0	29.0	73	21.4	2	5	292	0.00	29.916 
21:05	28.7	28.7	28.7	74	21.5	2	5	270	0.00	29.916 
21:10	28.4	28.4	28.4	73	20.9	2	5	248	0.00	29.916 
21:15	28.2	28.2	28.2	73	20.7	1	3	270	0.00	29.917 
21:20	28.1	28.1	28.1	73	20.6	2	5	270	0.00	29.917 
21:25	27.8	27.8	27.8	73	20.3	2	4	248	0.00	29.917 
21:30	27.5	27.5	27.5	72	19.7	2	4	270	0.00	29.914 
21:35	27.3	27.3	27.3	71	19.2	1	7	292	0.00	29.914 
21:40	27.0	27.0	27.0	71	18.9	2	5	270	0.00	29.914 
21:45	26.9	26.9	26.9	72	19.1	0	3	270	0.00	29.911 
21:50	26.7	26.7	26.7	72	18.9	1	3	270	0.00	29.911 
21:55	26.7	26.7	26.7	73	19.2	1	3	270	0.00	29.911 
22:00	26.4	26.4	26.4	74	19.3	1	4	270	0.00	29.911 
22:05	26.3	26.3	26.3	74	19.2	1	2	248	0.00	29.911 
22:10	26.1	26.1	26.1	75	19.3	0	2	248	0.00	29.911 
22:15	26.0	26.0	26.0	75	19.2	1	3	248	0.00	29.920 
22:20	26.0	26.0	26.0	76	19.5	0	2	248	0.00	29.920 
22:25	25.8	25.8	25.8	76	19.3	0	2	248	0.00	29.920 
22:30	25.7	25.7	25.7	77	19.5	0	2	248	0.00	29.917 
22:35	25.7	25.7	25.7	77	19.5	0	2	248	0.00	29.917 
22:40	25.7	25.7	25.7	77	19.5	0	2	248	0.00	29.917 
22:45	25.7	25.7	25.7	77	19.5	1	3	248	0.00	29.924 
22:50	25.7	25.7	25.7	77	19.5	1	3	248	0.00	29.924 
22:55	25.8	25.8	25.8	76	19.3	0	5	248	0.00	29.924 
23:00	25.8	25.8	25.8	75	19.0	0	2	248	0.00	29.923 
23:05	25.7	25.7	25.7	75	18.9	0	2	248	0.00	29.923 
23:10	25.6	25.6	25.6	74	18.5	0	1	248	0.00	29.923 
23:15	25.4	25.4	25.4	74	18.3	0	2	248	0.00	29.917 
23:20	25.3	25.3	25.3	74	18.2	0	2	248	0.00	29.917 
23:25	25.1	25.1	25.1	75	18.3	0	2	248	0.00	29.917 
23:30	25.0	25.0	25.0	75	18.2	0	3	248	0.00	29.923 
23:35	24.8	24.8	24.8	75	18.0	0	2	248	0.00	29.923 
23:40	24.8	24.8	24.8	76	18.3	0	2	248	0.00	29.923 
23:45	25.0	25.0	25.0	76	18.5	0	3	248	0.00	29.914 
23:50	25.0	25.0	25.0	76	18.5	0	3	248	0.00	29.914 
23:55	25.0	25.0	25.0	76	18.5	0	3	248	0.00	29.914 

CoCoRaHS
IN-AL-39
A2 Web Hosting
Creative Commons License
GoDaddy
search engine by freefind advanced

loaded 2018-11-15 19:06:51 • last modified 2010-11-18 10:43:29
Privacy PolicyDisclaimer
• wx.awcolley.com is powered by PmWiki v.2002016 •
• all content (unless otherwise noted) © 2018 A W Colley